createdAt,value
2023-03-22T00:00:07.877Z,77.70
2023-03-22T00:00:31.198Z,77.68
2023-03-22T00:00:55.128Z,77.69
2023-03-22T00:01:19.983Z,77.68
2023-03-22T00:01:43.407Z,77.74
2023-03-22T00:02:06.618Z,77.81
2023-03-22T00:02:30.759Z,77.82
2023-03-22T00:02:55.403Z,77.91
2023-03-22T00:03:18.620Z,77.88
2023-03-22T00:03:46.992Z,78.08
2023-03-22T00:04:11.747Z,78.12
2023-03-22T00:04:35.022Z,78.22
2023-03-22T00:04:58.078Z,78.13
2023-03-22T00:05:21.352Z,78.26
2023-03-22T00:06:04.510Z,78.31
2023-03-22T00:06:41.942Z,78.26
2023-03-22T00:07:05.053Z,78.31
2023-03-22T00:07:28.494Z,78.22
2023-03-22T00:07:54.354Z,78.26
2023-03-22T00:08:18.935Z,78.30
2023-03-22T00:08:42.271Z,78.24
2023-03-22T00:09:06.357Z,78.10
2023-03-22T00:09:31.932Z,78.13
2023-03-22T00:09:55.136Z,78.27
2023-03-22T00:10:18.467Z,78.32
2023-03-22T00:10:42.286Z,78.31
2023-03-22T00:11:06.021Z,78.16
2023-03-22T00:11:29.949Z,78.30
2023-03-22T00:11:53.568Z,78.24
2023-03-22T00:12:16.893Z,78.28
2023-03-22T00:12:40.518Z,78.30
2023-03-22T00:13:04.758Z,78.21
2023-03-22T00:13:28.277Z,78.35
2023-03-22T00:13:52.826Z,78.33
2023-03-22T00:14:16.041Z,78.42
2023-03-22T00:14:39.354Z,78.36
2023-03-22T00:15:02.555Z,78.46
2023-03-22T00:15:31.828Z,78.38
2023-03-22T00:16:00.018Z,78.45
2023-03-22T00:16:25.553Z,78.43
2023-03-22T00:16:54.565Z,78.43
2023-03-22T00:17:17.681Z,78.54
2023-03-22T00:17:42.223Z,78.45
2023-03-22T00:18:07.280Z,78.49
2023-03-22T00:18:30.706Z,78.48
2023-03-22T00:18:54.131Z,78.52
2023-03-22T00:19:18.155Z,78.54
2023-03-22T00:19:42.396Z,78.53
2023-03-22T00:20:08.643Z,78.62
2023-03-22T00:20:34.044Z,78.55
2023-03-22T00:20:58.182Z,78.62
2023-03-22T00:21:21.321Z,78.59
2023-03-22T00:21:44.512Z,78.59
2023-03-22T00:22:08.750Z,78.53
2023-03-22T00:22:36.673Z,78.72
2023-03-22T00:23:02.038Z,78.64
2023-03-22T00:23:25.872Z,78.64
2023-03-22T00:23:51.032Z,78.49
2023-03-22T00:24:14.174Z,78.61
2023-03-22T00:24:37.876Z,78.55
2023-03-22T00:25:01.926Z,78.62
2023-03-22T00:25:25.734Z,78.67
2023-03-22T00:25:49.152Z,78.65
2023-03-22T00:26:12.798Z,78.71
2023-03-22T00:26:36.812Z,78.68
2023-03-22T00:27:00.439Z,78.68
2023-03-22T00:27:23.904Z,78.79
2023-03-22T00:27:47.389Z,78.80
2023-03-22T00:28:10.405Z,78.76
2023-03-22T00:28:33.714Z,78.70
2023-03-22T00:28:57.032Z,78.79
2023-03-22T00:29:24.342Z,78.66
2023-03-22T00:29:49.089Z,78.67
2023-03-22T00:30:13.654Z,78.60
2023-03-22T00:30:38.787Z,78.54
2023-03-22T00:31:02.871Z,78.52
2023-03-22T00:31:26.294Z,78.33
2023-03-22T00:31:50.366Z,78.49
2023-03-22T00:32:13.606Z,78.37
2023-03-22T00:32:37.647Z,78.28
2023-03-22T00:33:00.870Z,78.35
2023-03-22T00:33:24.789Z,78.28
2023-03-22T00:33:48.007Z,78.22
2023-03-22T00:34:11.732Z,78.27
2023-03-22T00:34:35.778Z,78.32
2023-03-22T00:34:59.086Z,78.32
2023-03-22T00:35:29.427Z,78.46
2023-03-22T00:35:53.230Z,78.52
2023-03-22T00:36:17.637Z,78.53
2023-03-22T00:36:40.857Z,78.51
2023-03-22T00:37:05.148Z,78.64
2023-03-22T00:37:34.149Z,78.67
2023-03-22T00:37:57.760Z,78.73
2023-03-22T00:38:23.373Z,78.81
2023-03-22T00:38:51.991Z,78.78
2023-03-22T00:39:16.613Z,78.83
2023-03-22T00:39:39.835Z,78.91
2023-03-22T00:40:09.013Z,78.94
2023-03-22T00:40:33.218Z,79.01
2023-03-22T00:40:56.355Z,78.99
2023-03-22T00:41:21.285Z,78.96
2023-03-22T00:41:44.503Z,79.10
2023-03-22T00:42:09.048Z,79.09
2023-03-22T00:42:33.086Z,79.13
2023-03-22T00:42:56.528Z,79.14
2023-03-22T00:43:19.722Z,79.27
2023-03-22T00:43:43.092Z,79.06
2023-03-22T00:44:06.460Z,79.04
2023-03-22T00:44:29.576Z,79.16
2023-03-22T00:44:52.688Z,79.23
2023-03-22T00:45:16.529Z,79.24
2023-03-22T00:45:41.091Z,79.20
2023-03-22T00:46:05.044Z,79.20
2023-03-22T00:46:28.123Z,79.19
2023-03-22T00:46:51.634Z,79.31
2023-03-22T00:47:17.006Z,79.33
2023-03-22T00:47:44.310Z,79.23
2023-03-22T00:48:09.715Z,79.31
2023-03-22T00:48:35.663Z,79.30
2023-03-22T00:48:59.482Z,79.26
2023-03-22T00:49:25.672Z,79.33
2023-03-22T00:49:49.386Z,79.34
2023-03-22T00:50:12.406Z,79.29
2023-03-22T00:50:37.864Z,79.25
2023-03-22T00:51:02.001Z,79.16
2023-03-22T00:51:26.867Z,79.22
2023-03-22T00:51:50.340Z,79.40
2023-03-22T00:52:13.397Z,79.28
2023-03-22T00:52:36.519Z,79.31
2023-03-22T00:52:59.922Z,79.16
2023-03-22T00:53:22.880Z,79.19
2023-03-22T00:53:51.027Z,79.19
2023-03-22T00:54:14.176Z,79.08
2023-03-22T00:54:38.550Z,79.14
2023-03-22T00:55:01.739Z,79.07
2023-03-22T00:55:25.361Z,79.12
2023-03-22T00:55:48.884Z,79.02
2023-03-22T00:56:15.979Z,79.06
2023-03-22T00:56:50.455Z,78.97
2023-03-22T00:57:14.537Z,78.87
2023-03-22T00:57:38.111Z,78.94
2023-03-22T00:58:01.941Z,78.91
2023-03-22T00:58:25.167Z,78.98
2023-03-22T00:58:48.685Z,78.96
2023-03-22T00:59:13.023Z,79.06
2023-03-22T00:59:38.790Z,79.07
2023-03-22T01:00:10.500Z,79.06
2023-03-22T01:00:33.820Z,79.27
2023-03-22T01:00:57.498Z,79.21
2023-03-22T01:01:21.336Z,79.29
2023-03-22T01:01:45.409Z,79.33
2023-03-22T01:02:09.761Z,79.47
2023-03-22T01:02:34.203Z,79.44
2023-03-22T01:02:59.964Z,79.44
2023-03-22T01:03:23.131Z,79.60
2023-03-22T01:03:49.934Z,79.64
2023-03-22T01:04:18.049Z,79.68
2023-03-22T01:04:46.470Z,79.63
2023-03-22T01:05:09.972Z,79.57
2023-03-22T01:05:35.139Z,79.72
2023-03-22T01:05:58.309Z,79.72
2023-03-22T01:06:21.650Z,79.73
2023-03-22T01:06:44.725Z,79.56
2023-03-22T01:07:08.702Z,79.75
2023-03-22T01:07:33.352Z,79.70
2023-03-22T01:08:08.939Z,79.65
2023-03-22T01:08:39.312Z,79.77
2023-03-22T01:09:03.770Z,79.81
2023-03-22T01:09:31.100Z,79.78
2023-03-22T01:09:54.893Z,79.74
2023-03-22T01:10:18.622Z,79.91
2023-03-22T01:10:41.999Z,79.81
2023-03-22T01:11:07.127Z,79.91
2023-03-22T01:11:30.138Z,79.89
2023-03-22T01:11:53.227Z,79.88
2023-03-22T01:12:16.664Z,79.98
2023-03-22T01:12:39.761Z,79.98
2023-03-22T01:13:03.284Z,79.96
2023-03-22T01:13:26.502Z,79.96
2023-03-22T01:13:50.564Z,79.92
2023-03-22T01:14:14.048Z,80.03
2023-03-22T01:14:37.245Z,79.96
2023-03-22T01:15:00.489Z,79.87
2023-03-22T01:15:24.324Z,79.93
2023-03-22T01:15:50.705Z,79.79
2023-03-22T01:16:14.712Z,79.87
2023-03-22T01:16:38.411Z,79.73
2023-03-22T01:17:01.483Z,79.85
2023-03-22T01:17:24.809Z,79.73
2023-03-22T01:17:48.123Z,79.80
2023-03-22T01:18:11.331Z,79.70
2023-03-22T01:18:35.276Z,79.61
2023-03-22T01:18:58.377Z,79.65
2023-03-22T01:19:21.495Z,79.71
2023-03-22T01:19:44.607Z,79.58
2023-03-22T01:20:09.496Z,79.65
2023-03-22T01:20:32.776Z,79.67
2023-03-22T01:20:56.516Z,79.76
2023-03-22T01:21:19.830Z,79.75
2023-03-22T01:21:43.248Z,79.75
2023-03-22T01:22:06.906Z,79.84
2023-03-22T01:22:30.700Z,79.82
2023-03-22T01:22:54.856Z,79.92
2023-03-22T01:23:18.359Z,79.95
2023-03-22T01:23:41.581Z,79.92
2023-03-22T01:24:04.998Z,80.02
2023-03-22T01:24:28.926Z,80.06
2023-03-22T01:24:52.352Z,80.03
2023-03-22T01:25:16.385Z,79.94
2023-03-22T01:25:39.499Z,80.10
2023-03-22T01:26:02.958Z,80.12
2023-03-22T01:26:26.352Z,80.25
2023-03-22T01:26:49.554Z,80.16
2023-03-22T01:27:12.778Z,80.10
2023-03-22T01:27:35.987Z,80.05
2023-03-22T01:27:59.219Z,80.10
2023-03-22T01:28:25.854Z,80.13
2023-03-22T01:28:50.551Z,80.10
2023-03-22T01:29:13.662Z,80.17
2023-03-22T01:29:37.493Z,80.11
2023-03-22T01:30:01.119Z,80.07
2023-03-22T01:30:24.549Z,80.02
2023-03-22T01:30:48.604Z,80.25
2023-03-22T01:31:12.561Z,80.13
2023-03-22T01:31:35.820Z,80.04
2023-03-22T01:31:58.944Z,80.05
2023-03-22T01:32:22.159Z,80.25
2023-03-22T01:32:45.888Z,80.26
2023-03-22T01:33:09.225Z,80.20
2023-03-22T01:33:32.719Z,80.24
2023-03-22T01:33:56.350Z,80.25
2023-03-22T01:34:19.663Z,80.26
2023-03-22T01:34:42.903Z,80.06
2023-03-22T01:35:06.714Z,80.26
2023-03-22T01:35:30.999Z,80.26
2023-03-22T01:35:54.455Z,80.24
2023-03-22T01:36:18.204Z,80.45
2023-03-22T01:36:41.520Z,80.32
2023-03-22T01:37:04.741Z,80.27
2023-03-22T01:37:29.596Z,80.34
2023-03-22T01:37:53.312Z,80.33
2023-03-22T01:38:16.943Z,80.27
2023-03-22T01:38:47.114Z,80.26
2023-03-22T01:39:10.338Z,80.27
2023-03-22T01:39:34.069Z,80.28
2023-03-22T01:40:00.035Z,80.33
2023-03-22T01:40:23.462Z,80.29
2023-03-22T01:40:47.417Z,80.36
2023-03-22T01:41:10.815Z,80.21
2023-03-22T01:41:37.553Z,80.21
2023-03-22T01:42:06.346Z,80.33
2023-03-22T01:42:29.263Z,80.22
2023-03-22T01:42:53.289Z,80.05
2023-03-22T01:43:17.387Z,80.12
2023-03-22T01:43:42.120Z,80.01
2023-03-22T01:44:15.779Z,80.00
2023-03-22T01:44:38.889Z,79.87
2023-03-22T01:45:14.273Z,79.91
2023-03-22T01:45:56.598Z,79.91
2023-03-22T01:46:23.548Z,79.77
2023-03-22T01:46:48.011Z,79.78
2023-03-22T01:47:11.843Z,79.71
2023-03-22T01:47:35.072Z,79.69
2023-03-22T01:47:59.475Z,79.75
2023-03-22T01:48:26.918Z,79.79
2023-03-22T01:48:50.347Z,79.61
2023-03-22T01:49:24.027Z,79.78
2023-03-22T01:49:49.563Z,79.80
2023-03-22T01:50:13.073Z,79.68
2023-03-22T01:50:37.754Z,79.77
2023-03-22T01:51:07.301Z,79.70
2023-03-22T01:51:34.829Z,79.84
2023-03-22T01:52:06.499Z,79.77
2023-03-22T01:52:53.236Z,79.97
2023-03-22T01:53:28.215Z,79.95
2023-03-22T01:53:58.758Z,79.98
2023-03-22T01:54:29.521Z,80.14
2023-03-22T01:54:52.794Z,80.11
2023-03-22T01:55:37.386Z,80.14
2023-03-22T01:56:10.931Z,80.36
2023-03-22T01:56:35.068Z,80.25
2023-03-22T01:56:58.592Z,80.14
2023-03-22T01:57:29.070Z,80.16
2023-03-22T01:57:52.693Z,80.30
2023-03-22T01:58:20.536Z,80.33
2023-03-22T01:58:46.207Z,80.11
2023-03-22T01:59:10.320Z,80.28
2023-03-22T01:59:50.253Z,80.23
2023-03-22T02:00:22.560Z,80.33
2023-03-22T02:01:06.206Z,80.19
2023-03-22T02:01:41.404Z,80.31
2023-03-22T02:02:05.213Z,80.30
2023-03-22T02:02:31.160Z,80.20
2023-03-22T02:03:05.002Z,80.21
2023-03-22T02:03:37.566Z,80.26
2023-03-22T02:04:07.351Z,80.21
2023-03-22T02:04:38.476Z,80.19
2023-03-22T02:05:03.307Z,80.19
2023-03-22T02:05:27.514Z,80.30
2023-03-22T02:05:55.721Z,80.27
2023-03-22T02:06:22.740Z,80.17
2023-03-22T02:06:54.548Z,80.29
2023-03-22T02:07:26.144Z,80.24
2023-03-22T02:08:10.843Z,80.26
2023-03-22T02:08:48.283Z,80.28
2023-03-22T02:09:16.911Z,80.30
2023-03-22T02:09:42.682Z,80.33
2023-03-22T02:10:27.994Z,80.45
2023-03-22T02:10:55.505Z,80.41
2023-03-22T02:11:21.921Z,80.45
2023-03-22T02:11:49.306Z,80.48
2023-03-22T02:12:38.799Z,80.42
2023-03-22T02:13:39.022Z,80.49
2023-03-22T02:14:36.969Z,80.29
2023-03-22T02:15:26.163Z,80.18
2023-03-22T02:16:22.728Z,80.18
2023-03-22T02:17:03.282Z,80.10
2023-03-22T02:17:30.899Z,80.09
2023-03-22T02:18:16.644Z,80.11
2023-03-22T02:18:50.159Z,80.13
2023-03-22T02:19:29.546Z,80.27
2023-03-22T02:20:32.132Z,80.38
2023-03-22T02:21:19.769Z,80.42
2023-03-22T02:21:53.740Z,80.53
2023-03-22T02:22:17.472Z,80.53
2023-03-22T02:22:46.334Z,80.66
2023-03-22T02:23:22.009Z,80.63
2023-03-22T02:24:03.953Z,80.73
2023-03-22T02:24:26.949Z,80.78
2023-03-22T02:25:09.621Z,80.68
2023-03-22T02:25:51.632Z,80.78
2023-03-22T02:26:24.261Z,80.80
2023-03-22T02:27:09.364Z,80.94
2023-03-22T02:27:39.436Z,80.95
2023-03-22T02:28:02.443Z,80.95
2023-03-22T02:28:31.799Z,80.97
2023-03-22T02:29:26.512Z,81.02
2023-03-22T02:30:07.830Z,81.00
2023-03-22T02:30:37.306Z,81.02
2023-03-22T02:31:01.590Z,81.09
2023-03-22T02:31:43.765Z,81.13
2023-03-22T02:32:11.069Z,81.08
2023-03-22T02:32:37.149Z,81.11
2023-03-22T02:33:05.389Z,81.19
2023-03-22T02:33:31.081Z,81.10
2023-03-22T02:34:19.116Z,81.28
2023-03-22T02:35:01.271Z,81.18
2023-03-22T02:35:24.927Z,81.31
2023-03-22T02:35:54.475Z,81.33
2023-03-22T02:36:41.176Z,81.20
2023-03-22T02:37:10.433Z,81.31
2023-03-22T02:37:47.558Z,81.26
2023-03-22T02:38:19.566Z,81.39
2023-03-22T02:39:01.173Z,81.40
2023-03-22T02:39:41.284Z,81.43
2023-03-22T02:40:10.739Z,81.34
2023-03-22T02:40:40.802Z,81.53
2023-03-22T02:41:08.321Z,81.43
2023-03-22T02:41:36.042Z,81.41
2023-03-22T02:42:17.560Z,81.66
2023-03-22T02:43:04.422Z,81.59
2023-03-22T02:43:38.739Z,81.38
2023-03-22T02:44:02.101Z,81.53
2023-03-22T02:44:37.674Z,81.43
2023-03-22T02:45:24.562Z,81.31
2023-03-22T02:45:52.654Z,81.39
2023-03-22T02:46:22.731Z,81.30
2023-03-22T02:47:06.437Z,81.24
2023-03-22T02:47:54.444Z,81.07
2023-03-22T02:48:21.532Z,81.03
2023-03-22T02:48:48.963Z,81.05
2023-03-22T02:49:28.552Z,80.99
2023-03-22T02:50:04.956Z,81.17
2023-03-22T02:50:30.429Z,81.14
2023-03-22T02:50:53.424Z,81.13
2023-03-22T02:51:30.565Z,81.17
2023-03-22T02:52:19.853Z,81.26
2023-03-22T02:52:50.433Z,81.24
2023-03-22T02:53:17.503Z,81.39
2023-03-22T02:53:52.513Z,81.46
2023-03-22T02:54:21.262Z,81.37
2023-03-22T02:55:00.732Z,81.48
2023-03-22T02:55:44.912Z,81.63
2023-03-22T02:56:19.276Z,81.58
2023-03-22T02:56:47.505Z,81.65
2023-03-22T02:57:15.935Z,81.91
2023-03-22T02:57:59.138Z,81.67
2023-03-22T02:58:38.178Z,81.78
2023-03-22T02:59:01.922Z,81.80
2023-03-22T02:59:26.761Z,81.84
2023-03-22T02:59:50.380Z,81.87
2023-03-22T03:00:14.209Z,81.78
2023-03-22T03:00:39.082Z,82.00
2023-03-22T03:01:06.048Z,81.95
2023-03-22T03:01:38.481Z,81.92
2023-03-22T03:02:01.756Z,81.95
2023-03-22T03:02:25.079Z,81.85
2023-03-22T03:02:50.870Z,82.12
2023-03-22T03:03:18.430Z,81.99
2023-03-22T03:03:41.730Z,82.07
2023-03-22T03:04:05.958Z,82.05
2023-03-22T03:04:29.580Z,82.06
2023-03-22T03:04:54.227Z,82.03
2023-03-22T03:05:17.547Z,82.06
2023-03-22T03:05:42.806Z,82.02
2023-03-22T03:06:08.575Z,81.93
2023-03-22T03:06:33.025Z,81.93
2023-03-22T03:06:57.673Z,82.02
2023-03-22T03:07:22.220Z,81.84
2023-03-22T03:07:47.889Z,81.83
2023-03-22T03:08:11.124Z,81.84
2023-03-22T03:08:34.526Z,81.74
2023-03-22T03:09:04.998Z,81.79
2023-03-22T03:09:30.593Z,81.73
2023-03-22T03:09:54.920Z,81.51
2023-03-22T03:10:19.054Z,81.64
2023-03-22T03:10:43.188Z,81.72
2023-03-22T03:11:07.221Z,81.68
2023-03-22T03:11:32.401Z,81.65
2023-03-22T03:11:55.805Z,81.73
2023-03-22T03:12:20.242Z,81.67
2023-03-22T03:12:43.873Z,81.72
2023-03-22T03:13:11.185Z,81.81
2023-03-22T03:13:34.396Z,81.71
2023-03-22T03:13:57.510Z,81.91
2023-03-22T03:14:21.968Z,81.92
2023-03-22T03:14:48.470Z,81.92
2023-03-22T03:15:16.467Z,81.89
2023-03-22T03:15:42.754Z,81.98
2023-03-22T03:16:08.109Z,82.08
2023-03-22T03:16:35.187Z,82.09
2023-03-22T03:17:31.242Z,81.94
2023-03-22T03:18:07.250Z,82.09
2023-03-22T03:18:32.342Z,82.19
2023-03-22T03:19:03.933Z,82.19
2023-03-22T03:19:32.568Z,82.20
2023-03-22T03:20:17.052Z,82.34
2023-03-22T03:21:02.987Z,82.41
2023-03-22T03:21:35.801Z,82.44
2023-03-22T03:22:03.744Z,82.47
2023-03-22T03:22:49.882Z,82.43
2023-03-22T03:23:20.125Z,82.53
2023-03-22T03:23:43.545Z,82.35
2023-03-22T03:24:27.941Z,82.59
2023-03-22T03:24:56.984Z,82.54
2023-03-22T03:25:35.022Z,82.56
2023-03-22T03:26:16.969Z,82.55
2023-03-22T03:26:58.683Z,82.52
2023-03-22T03:27:23.241Z,82.52
2023-03-22T03:27:50.009Z,82.60
2023-03-22T03:28:14.877Z,82.57
2023-03-22T03:28:44.956Z,82.66
2023-03-22T03:29:11.862Z,82.51
2023-03-22T03:29:34.957Z,82.53
2023-03-22T03:30:02.678Z,82.51
2023-03-22T03:30:30.920Z,82.61
2023-03-22T03:30:56.378Z,82.43
2023-03-22T03:31:20.204Z,82.44
2023-03-22T03:31:52.297Z,82.43
2023-03-22T03:32:17.505Z,82.36
2023-03-22T03:32:45.937Z,82.32
2023-03-22T03:33:10.143Z,82.30
2023-03-22T03:33:33.669Z,82.24
2023-03-22T03:34:00.466Z,82.19
2023-03-22T03:34:27.874Z,82.17
2023-03-22T03:35:01.831Z,82.11
2023-03-22T03:35:27.003Z,82.22
2023-03-22T03:35:51.213Z,82.35
2023-03-22T03:36:15.668Z,82.20
2023-03-22T03:36:39.551Z,82.26
2023-03-22T03:37:08.357Z,82.25
2023-03-22T03:37:35.447Z,82.23
2023-03-22T03:38:08.821Z,82.48
2023-03-22T03:38:34.872Z,82.51
2023-03-22T03:38:58.093Z,82.47
2023-03-22T03:39:22.239Z,82.54
2023-03-22T03:39:49.433Z,82.61
2023-03-22T03:40:13.878Z,82.51
2023-03-22T03:40:39.080Z,82.52
2023-03-22T03:41:03.583Z,82.69
2023-03-22T03:41:30.170Z,82.69
2023-03-22T03:41:53.282Z,82.65
2023-03-22T03:42:16.390Z,82.59
2023-03-22T03:42:40.737Z,82.76
2023-03-22T03:43:04.261Z,82.68
2023-03-22T03:43:28.930Z,82.59
2023-03-22T03:43:52.120Z,82.76
2023-03-22T03:44:15.568Z,82.86
2023-03-22T03:44:41.734Z,82.96
2023-03-22T03:45:05.454Z,82.87
2023-03-22T03:45:29.193Z,82.84
2023-03-22T03:45:54.183Z,82.92
2023-03-22T03:46:18.090Z,82.86
2023-03-22T03:46:41.799Z,82.92
2023-03-22T03:47:05.735Z,82.96
2023-03-22T03:47:28.846Z,82.83
2023-03-22T03:47:57.201Z,82.92
2023-03-22T03:48:22.286Z,82.97
2023-03-22T03:48:46.796Z,82.97
2023-03-22T03:49:14.185Z,82.94
2023-03-22T03:49:43.068Z,83.00
2023-03-22T03:50:06.452Z,83.04
2023-03-22T03:50:29.870Z,82.93
2023-03-22T03:50:53.903Z,83.04
2023-03-22T03:51:17.338Z,83.14
2023-03-22T03:51:47.904Z,83.04
2023-03-22T03:52:11.325Z,83.15
2023-03-22T03:52:34.643Z,83.17
2023-03-22T03:52:58.573Z,83.14
2023-03-22T03:53:21.800Z,83.33
2023-03-22T03:53:45.110Z,83.24
2023-03-22T03:54:08.324Z,83.15
2023-03-22T03:54:31.441Z,83.17
2023-03-22T03:55:00.133Z,83.09
2023-03-22T03:55:28.413Z,83.29
2023-03-22T03:55:51.731Z,83.31
2023-03-22T03:56:15.399Z,83.36
2023-03-22T03:56:41.123Z,83.14
2023-03-22T03:57:04.293Z,83.24
2023-03-22T03:57:27.562Z,83.23
2023-03-22T03:57:51.190Z,83.20
2023-03-22T03:58:16.852Z,83.22
2023-03-22T03:58:41.101Z,83.16
2023-03-22T03:59:04.045Z,82.99
2023-03-22T03:59:27.142Z,82.97
2023-03-22T03:59:50.744Z,82.94
2023-03-22T04:00:21.676Z,82.95
2023-03-22T04:27:55.378Z,83.56
2023-03-22T04:28:19.359Z,83.71
2023-03-22T04:28:45.905Z,83.58
2023-03-22T04:29:10.042Z,83.68
2023-03-22T04:29:35.816Z,83.92
2023-03-22T04:30:11.753Z,83.99
2023-03-22T04:31:02.858Z,84.02
2023-03-22T04:31:52.556Z,84.26
2023-03-22T04:32:29.478Z,84.46
2023-03-22T04:32:51.568Z,84.39
2023-03-22T04:33:15.704Z,84.51
2023-03-22T04:34:05.208Z,84.64
2023-03-22T04:34:42.798Z,84.57
2023-03-22T04:35:07.431Z,84.43
2023-03-22T04:35:31.126Z,84.48
2023-03-22T04:35:56.109Z,84.49
2023-03-22T04:36:21.844Z,84.44
2023-03-22T04:37:01.934Z,84.43
2023-03-22T04:37:30.984Z,84.47
2023-03-22T04:38:07.402Z,84.45
2023-03-22T04:38:29.993Z,84.43
2023-03-22T04:38:51.626Z,84.37
2023-03-22T04:39:15.915Z,84.24
2023-03-22T04:39:42.200Z,84.48
2023-03-22T04:40:34.768Z,84.33
2023-03-22T04:41:04.876Z,84.27
2023-03-22T04:41:33.687Z,84.12
2023-03-22T04:41:56.483Z,84.23
2023-03-22T04:42:18.482Z,84.23
2023-03-22T04:42:40.463Z,84.07
2023-03-22T04:43:12.172Z,84.06
2023-03-22T04:43:57.178Z,83.84
2023-03-22T04:44:19.873Z,83.81
2023-03-22T04:44:44.419Z,83.72
2023-03-22T04:45:07.021Z,83.88
2023-03-22T04:45:31.873Z,83.79
2023-03-22T04:45:57.618Z,83.76
2023-03-22T04:46:23.565Z,83.99
2023-03-22T04:46:50.147Z,83.87
2023-03-22T04:47:18.504Z,83.81
2023-03-22T04:47:44.795Z,83.89
2023-03-22T04:48:11.684Z,83.92
2023-03-22T04:48:37.412Z,83.89
2023-03-22T04:48:59.286Z,83.90
2023-03-22T04:49:21.315Z,83.97
2023-03-22T04:49:43.725Z,84.03
2023-03-22T04:50:06.562Z,84.11
2023-03-22T04:50:31.230Z,84.15
2023-03-22T04:50:55.982Z,84.22
2023-03-22T04:51:19.711Z,84.06
2023-03-22T04:52:17.190Z,84.39
2023-03-22T04:52:47.462Z,84.33
2023-03-22T04:53:15.186Z,84.38
2023-03-22T04:53:41.475Z,84.49
2023-03-22T04:54:06.422Z,84.54
2023-03-22T04:54:30.964Z,84.42
2023-03-22T04:54:53.780Z,84.44
2023-03-22T04:55:15.759Z,84.53
2023-03-22T04:55:38.366Z,84.57
2023-03-22T04:56:04.953Z,84.50
2023-03-22T04:56:27.353Z,84.54
2023-03-22T04:56:49.951Z,84.50
2023-03-22T04:57:12.556Z,84.49
2023-03-22T04:57:36.491Z,84.53
2023-03-22T04:57:58.474Z,84.46
2023-03-22T04:58:21.590Z,84.38
2023-03-22T04:58:43.480Z,84.34
2023-03-22T04:59:10.309Z,84.29
2023-03-22T04:59:34.719Z,84.16
2023-03-22T04:59:59.267Z,84.21
2023-03-22T05:00:21.670Z,84.10
2023-03-22T05:00:43.857Z,84.07
2023-03-22T05:01:07.385Z,83.93
2023-03-22T05:01:30.923Z,83.79
2023-03-22T05:02:02.958Z,83.82
2023-03-22T05:02:30.785Z,83.81
2023-03-22T05:02:53.004Z,83.74
2023-03-22T05:03:24.050Z,83.73
2023-03-22T05:03:46.940Z,83.88
2023-03-22T05:04:09.222Z,83.87
2023-03-22T05:04:31.415Z,83.89
2023-03-22T05:04:57.755Z,83.91
2023-03-22T05:05:26.482Z,83.93
2023-03-22T05:05:52.110Z,84.01
2023-03-22T05:06:14.513Z,83.84
2023-03-22T05:06:43.964Z,83.94
2023-03-22T05:07:10.965Z,84.05
2023-03-22T05:07:43.810Z,84.09
2023-03-22T05:08:13.699Z,84.15
2023-03-22T05:08:37.489Z,84.23
2023-03-22T05:09:00.502Z,84.13
2023-03-22T05:09:23.521Z,84.22
2023-03-22T05:09:46.630Z,84.22
2023-03-22T05:10:09.093Z,84.26
2023-03-22T05:10:31.581Z,84.19
2023-03-22T05:10:53.681Z,84.21
2023-03-22T05:11:16.121Z,84.20
2023-03-22T05:11:40.703Z,84.29
2023-03-22T05:12:32.318Z,84.27
2023-03-22T05:13:05.562Z,84.26
2023-03-22T05:13:34.190Z,84.33
2023-03-22T05:13:58.873Z,84.39
2023-03-22T05:14:21.679Z,84.28
2023-03-22T05:14:45.435Z,84.28
2023-03-22T05:15:09.098Z,84.31
2023-03-22T05:15:32.315Z,84.11
2023-03-22T05:15:55.107Z,84.04
2023-03-22T05:16:22.559Z,84.24
2023-03-22T05:16:45.848Z,83.99
2023-03-22T05:17:07.943Z,83.96
2023-03-22T05:17:31.355Z,83.83
2023-03-22T05:17:55.123Z,83.80
2023-03-22T05:18:17.491Z,83.77
2023-03-22T05:18:44.793Z,83.64
2023-03-22T05:19:13.270Z,83.64
2023-03-22T05:19:37.015Z,83.60
2023-03-22T05:20:08.768Z,83.62
2023-03-22T05:20:30.483Z,83.60
2023-03-22T05:21:21.581Z,83.63
2023-03-22T05:21:44.593Z,83.56
2023-03-22T05:22:06.425Z,83.64
2023-03-22T05:22:40.028Z,83.69
2023-03-22T05:23:02.319Z,83.70
2023-03-22T05:23:24.520Z,83.73
2023-03-22T05:23:51.390Z,83.80
2023-03-22T05:24:14.323Z,83.82
2023-03-22T05:24:37.128Z,83.68
2023-03-22T05:24:59.124Z,83.80
2023-03-22T05:25:21.926Z,83.79
2023-03-22T05:25:46.265Z,83.77
2023-03-22T05:26:15.473Z,84.01
2023-03-22T05:26:41.905Z,84.01
2023-03-22T05:27:05.305Z,84.04
2023-03-22T05:27:34.168Z,83.94
2023-03-22T05:28:08.123Z,83.96
2023-03-22T05:28:54.765Z,84.04
2023-03-22T05:29:36.284Z,84.22
2023-03-22T05:30:04.545Z,84.17
2023-03-22T05:30:40.018Z,84.25
2023-03-22T05:31:11.221Z,84.26
2023-03-22T05:31:46.793Z,84.29
2023-03-22T05:32:09.330Z,84.22
2023-03-22T05:32:31.683Z,84.06
2023-03-22T05:33:02.679Z,84.16
2023-03-22T05:33:24.762Z,84.11
2023-03-22T05:33:49.855Z,84.06
2023-03-22T05:34:13.039Z,83.98
2023-03-22T05:34:36.220Z,83.89
2023-03-22T05:35:08.123Z,83.81
2023-03-22T05:35:34.679Z,83.77
2023-03-22T05:35:57.106Z,83.67
2023-03-22T05:36:19.964Z,83.75
2023-03-22T05:37:13.865Z,83.69
2023-03-22T05:37:48.533Z,83.81
2023-03-22T05:38:12.605Z,83.92
2023-03-22T05:38:39.056Z,83.87
2023-03-22T05:39:02.992Z,84.05
2023-03-22T05:39:24.671Z,83.96
2023-03-22T05:39:46.742Z,84.10
2023-03-22T05:40:12.024Z,84.00
2023-03-22T05:40:38.018Z,84.07
2023-03-22T05:41:00.138Z,84.11
2023-03-22T05:41:24.846Z,84.10
2023-03-22T05:41:47.038Z,84.21
2023-03-22T05:42:09.129Z,84.18
2023-03-22T05:42:31.832Z,84.12
2023-03-22T05:42:54.742Z,84.12
2023-03-22T05:43:19.190Z,84.19
2023-03-22T05:43:43.736Z,84.15
2023-03-22T05:44:06.035Z,83.95
2023-03-22T05:44:29.797Z,84.14
2023-03-22T05:45:02.401Z,84.13
2023-03-22T05:45:25.293Z,84.01
2023-03-22T05:45:57.713Z,84.02
2023-03-22T05:46:32.576Z,83.93
2023-03-22T05:47:13.098Z,83.93
2023-03-22T05:47:45.793Z,83.75
2023-03-22T05:48:11.810Z,83.63
2023-03-22T05:48:33.881Z,83.80
2023-03-22T05:48:55.906Z,83.64
2023-03-22T05:49:18.479Z,83.67
2023-03-22T05:49:42.520Z,83.64
2023-03-22T05:50:09.365Z,83.62
2023-03-22T05:50:31.221Z,83.58
2023-03-22T05:50:53.697Z,83.55
2023-03-22T05:51:18.653Z,83.40
2023-03-22T05:51:46.574Z,83.40
2023-03-22T05:52:09.118Z,83.48
2023-03-22T05:52:42.328Z,83.52
2023-03-22T05:53:13.612Z,83.56
2023-03-22T05:53:46.648Z,83.56
2023-03-22T05:54:12.770Z,83.60
2023-03-22T05:54:38.413Z,83.66
2023-03-22T05:55:01.311Z,83.70
2023-03-22T05:55:23.391Z,83.63
2023-03-22T05:55:52.341Z,83.65
2023-03-22T05:56:21.286Z,83.71
2023-03-22T05:56:43.783Z,83.70
2023-03-22T05:57:05.778Z,83.69
2023-03-22T05:57:29.603Z,83.77
2023-03-22T05:57:54.149Z,83.73
2023-03-22T05:58:18.418Z,83.69
2023-03-22T05:58:41.809Z,83.57
2023-03-22T05:59:05.093Z,83.81
2023-03-22T05:59:27.429Z,83.56
2023-03-22T05:59:53.298Z,83.52
2023-03-22T06:00:19.169Z,83.53
2023-03-22T06:01:00.494Z,83.32
2023-03-22T06:01:42.361Z,83.26
2023-03-22T06:02:16.829Z,83.15
2023-03-22T06:02:45.669Z,82.92
2023-03-22T06:03:08.673Z,82.99
2023-03-22T06:03:34.199Z,82.93
2023-03-22T06:04:04.176Z,82.78
2023-03-22T06:04:34.655Z,82.56
2023-03-22T06:05:01.007Z,82.49
2023-03-22T06:05:23.037Z,82.51
2023-03-22T06:05:46.145Z,82.32
2023-03-22T06:06:10.119Z,82.30
2023-03-22T06:06:37.289Z,82.31
2023-03-22T06:07:08.787Z,82.16
2023-03-22T06:07:37.935Z,82.06
2023-03-22T06:08:13.011Z,82.20
2023-03-22T06:08:34.656Z,81.98
2023-03-22T06:09:06.991Z,82.12
2023-03-22T06:09:45.414Z,82.00
2023-03-22T06:10:16.251Z,82.03
2023-03-22T06:10:50.519Z,82.06
2023-03-22T06:11:12.401Z,81.97
2023-03-22T06:11:34.851Z,82.03
2023-03-22T06:11:58.119Z,81.97
2023-03-22T06:12:23.928Z,82.10
2023-03-22T06:12:51.231Z,81.99
2023-03-22T06:13:19.215Z,82.00
2023-03-22T06:13:42.994Z,81.78
2023-03-22T06:14:04.774Z,81.88
2023-03-22T06:14:41.349Z,81.71
2023-03-22T06:15:10.397Z,81.84
2023-03-22T06:16:02.902Z,81.78
2023-03-22T06:16:26.503Z,81.76
2023-03-22T06:16:48.308Z,81.66
2023-03-22T06:17:11.495Z,81.61
2023-03-22T06:17:35.627Z,81.60
2023-03-22T06:17:57.512Z,81.80
2023-03-22T06:18:25.782Z,81.43
2023-03-22T06:18:53.458Z,81.43